Time;durP1;ratioP1;P1;durP2;ratioP2;P2;SDS_P1;SDS_P2;PMS_P1;PMS_P2;Temp;Humidity;BMP_temperature;BMP_pressure;BME280_temperature;BME280_humidity;BME280_pressure;Samples;Min_cycle;Max_cycle;Signal;HPM_P1;HPM_P2
2021/12/11 00:01:44;;;;;;;0.20;0.20;;;;;;;19.31;39.12;100016.22;5128448;27;20059;-39
2021/12/11 00:04:14;;;;;;;0.20;0.20;;;;;;;19.31;39.07;100018.97;5132315;27;20042;-38
2021/12/11 00:06:43;;;;;;;0.20;0.20;;;;;;;19.30;39.06;100026.44;5113087;27;20039;-38
2021/12/11 00:09:14;;;;;;;0.20;0.20;;;;;;;19.30;39.13;100029.19;5131074;27;20397;-38
2021/12/11 00:11:42;;;;;;;0.20;0.20;;;;;;;19.31;39.26;100041.06;5144857;27;20115;-37
2021/12/11 00:14:12;;;;;;;0.20;0.20;;;;;;;19.31;39.32;100046.59;5149510;27;20046;-38
2021/12/11 00:16:39;;;;;;;0.20;0.20;;;;;;;19.31;39.04;100054.88;5142332;27;20043;-37
2021/12/11 00:19:10;;;;;;;0.20;0.20;;;;;;;19.31;39.34;100052.09;5113387;27;20042;-37
2021/12/11 00:21:36;;;;;;;0.20;0.20;;;;;;;19.32;39.31;100070.31;5132482;27;20038;-38
2021/12/11 00:24:13;;;;;;;0.20;0.20;;;;;;;19.31;39.17;100068.66;5129081;27;20092;-38
2021/12/11 00:26:43;;;;;;;0.20;0.20;;;;;;;19.31;39.00;100068.66;5090464;27;20053;-38
2021/12/11 00:29:10;;;;;;;0.20;0.20;;;;;;;19.31;39.17;100074.19;5112010;27;20486;-38
2021/12/11 00:31:45;;;;;;;0.20;0.20;;;;;;;19.32;39.02;100080.53;5115066;27;20462;-38
2021/12/11 00:34:13;;;;;;;0.20;0.20;;;;;;;19.30;39.25;100078.91;5130214;27;20397;-38
2021/12/11 00:36:39;;;;;;;0.20;0.20;;;;;;;19.30;39.09;100083.59;5119724;27;20466;-38
2021/12/11 00:39:08;;;;;;;0.20;0.20;;;;;;;19.29;39.17;100096.56;5097276;28;20036;-38
2021/12/11 00:41:35;;;;;;;0.20;0.20;;;;;;;19.30;39.24;100100.16;5114259;28;20048;-36
2021/12/11 00:44:01;;;;;;;0.20;0.20;;;;;;;19.27;39.12;100107.09;5114667;28;20047;-39
2021/12/11 00:46:29;;;;;;;0.20;0.20;;;;;;;19.28;39.31;100119.78;5117417;28;20058;-38
2021/12/11 00:49:14;;;;;;;0.20;0.20;;;;;;;19.28;39.20;100117.00;5097894;28;20045;-39
2021/12/11 00:51:39;;;;;;;0.20;0.20;;;;;;;19.28;39.33;100125.28;5097615;28;20134;-36
2021/12/11 00:54:06;;;;;;;0.20;0.20;;;;;;;19.29;39.25;100134.38;5115020;28;20043;-36
2021/12/11 00:56:35;;;;;;;0.20;0.20;;;;;;;19.28;39.44;100128.06;5117164;28;20439;-37
2021/12/11 00:59:06;;;;;;;0.20;0.20;;;;;;;19.30;39.28;100147.09;5085621;28;20043;-38
2021/12/11 01:01:35;;;;;;;0.20;0.20;;;;;;;19.28;39.08;100143.81;5113616;28;20054;-38
2021/12/11 01:04:10;;;;;;;0.20;0.20;;;;;;;19.28;39.29;100157.59;5098072;28;20362;-38
2021/12/11 01:06:49;;;;;;;0.20;0.20;;;;;;;19.28;39.34;100160.38;5096003;28;20043;-37
2021/12/11 01:09:19;;;;;;;0.20;0.20;;;;;;;19.28;39.23;100169.47;5097960;28;20526;-38
2021/12/11 01:12:01;;;;;;;0.20;0.20;;;;;;;19.27;39.35;100170.59;5101369;28;20047;-38
2021/12/11 01:14:36;;;;;;;0.20;0.20;;;;;;;19.27;39.10;100181.63;5096910;28;20430;-37
2021/12/11 01:17:18;;;;;;;0.20;0.20;;;;;;;19.27;39.44;100180.81;5082048;28;20069;-38
2021/12/11 01:19:46;;;;;;;0.20;0.20;;;;;;;19.28;39.14;100193.50;5095224;28;20628;-38
2021/12/11 01:22:24;;;;;;;0.20;0.20;;;;;;;19.27;39.15;100191.84;5110980;28;20052;-38
2021/12/11 01:24:52;;;;;;;0.20;0.20;;;;;;;19.26;39.22;100207.59;5098540;28;20047;-38
2021/12/11 01:27:23;;;;;;;0.20;0.20;;;;;;;19.26;39.19;100213.13;5113503;28;20063;-37
2021/12/11 01:29:50;;;;;;;0.20;0.20;;;;;;;19.26;39.13;100217.84;5095879;28;20051;-36
2021/12/11 01:32:16;;;;;;;0.20;0.20;;;;;;;19.27;39.35;100230.50;5116019;28;20035;-37
2021/12/11 01:34:44;;;;;;;0.20;0.20;;;;;;;19.26;39.11;100237.97;5098255;28;20121;-36
2021/12/11 01:37:11;;;;;;;0.20;0.20;;;;;;;19.25;39.38;100241.00;5111984;28;20051;-37
2021/12/11 01:39:39;;;;;;;0.20;0.20;;;;;;;19.24;39.37;100248.47;5113683;28;20095;-38
2021/12/11 01:42:18;;;;;;;0.20;0.20;;;;;;;19.25;39.20;100255.63;5115372;28;20035;-36
2021/12/11 01:44:45;;;;;;;0.20;0.20;;;;;;;19.24;39.24;100265.03;5107990;28;20054;-37
2021/12/11 01:47:15;;;;;;;0.20;0.20;;;;;;;19.25;39.20;100272.19;5114728;27;20486;-37
2021/12/11 01:49:44;;;;;;;0.20;0.20;;;;;;;19.25;39.32;100280.47;5098912;28;20469;-37
2021/12/11 01:52:18;;;;;;;0.20;0.20;;;;;;;19.25;39.45;100286.00;5096031;28;20045;-37
2021/12/11 01:54:45;;;;;;;0.20;0.20;;;;;;;19.24;39.53;100292.66;5094388;28;20095;-37
2021/12/11 01:57:17;;;;;;;0.20;0.20;;;;;;;19.25;39.47;100307.25;5114244;28;20043;-37
2021/12/11 01:59:47;;;;;;;0.20;0.20;;;;;;;19.25;39.35;100305.31;5113711;28;20040;-38
2021/12/11 02:02:18;;;;;;;0.20;0.20;;;;;;;19.24;39.25;100309.22;5116616;28;20039;-37
2021/12/11 02:04:50;;;;;;;0.20;0.20;;;;;;;19.25;39.50;100315.53;5113341;28;20100;-37
2021/12/11 02:07:22;;;;;;;0.20;0.20;;;;;;;19.24;39.51;100314.72;5114636;28;20439;-37
2021/12/11 02:09:55;;;;;;;0.20;0.20;;;;;;;19.23;39.29;100321.38;5111359;28;20046;-36
2021/12/11 02:12:29;;;;;;;0.20;0.20;;;;;;;19.23;39.55;100331.59;5115806;28;20039;-37
2021/12/11 02:14:56;;;;;;;0.20;0.20;;;;;;;19.23;39.59;100335.19;5116959;28;20058;-37
2021/12/11 02:17:28;;;;;;;0.20;0.20;;;;;;;19.22;39.64;100338.25;5111952;28;20046;-36
2021/12/11 02:19:56;;;;;;;0.20;0.20;;;;;;;19.22;39.23;100341.00;5095180;28;20044;-37
2021/12/11 02:22:26;;;;;;;0.20;0.20;;;;;;;19.21;39.56;100350.38;5116032;28;20043;-37
2021/12/11 02:24:55;;;;;;;0.20;0.20;;;;;;;19.21;39.29;100358.66;5089148;28;20071;-37
2021/12/11 02:27:25;;;;;;;0.20;0.20;;;;;;;19.21;39.25;100362.28;5112309;28;20494;-37
2021/12/11 02:29:57;;;;;;;0.20;0.20;;;;;;;19.23;39.40;100367.50;5097829;28;20043;-37
2021/12/11 02:32:32;;;;;;;0.20;0.20;;;;;;;19.22;39.33;100361.16;5111815;28;20052;-36
2021/12/11 02:35:10;;;;;;;0.20;0.20;;;;;;;19.22;39.46;100358.38;5080912;28;20119;-39
2021/12/11 02:37:52;;;;;;;0.20;0.20;;;;;;;19.22;39.34;100371.38;5113135;28;20428;-37
2021/12/11 02:40:23;;;;;;;0.20;0.20;;;;;;;19.21;39.47;100373.31;5089741;28;20047;-37
2021/12/11 02:42:53;;;;;;;0.20;0.20;;;;;;;19.22;39.34;100380.47;5113376;28;20417;-37
2021/12/11 02:45:28;;;;;;;0.20;0.20;;;;;;;19.21;39.56;100380.75;5094372;28;20044;-37
2021/12/11 02:47:59;;;;;;;0.20;0.20;;;;;;;19.23;39.62;100390.38;5099971;28;20076;-38
2021/12/11 02:53:13;;;;;;;0.20;0.20;;;;;;;19.20;39.43;100388.22;5154758;27;20194;-37
2021/12/11 02:55:51;;;;;;;0.20;0.20;;;;;;;19.20;39.50;100393.72;5159839;27;20046;-37
2021/12/11 02:58:22;;;;;;;0.20;0.20;;;;;;;19.19;39.40;100389.31;5156295;27;20054;-37
2021/12/11 03:00:55;;;;;;;0.20;0.20;;;;;;;19.21;39.66;100397.31;5158768;27;20408;-37
2021/12/11 03:03:31;;;;;;;0.20;0.20;;;;;;;19.21;39.27;100405.59;5159460;27;20524;-38
2021/12/11 03:06:19;;;;;;;0.20;0.20;;;;;;;19.19;39.42;100407.84;5130120;27;20195;-37
2021/12/11 03:08:46;;;;;;;0.20;0.20;;;;;;;19.19;39.67;100419.69;5143093;27;20119;-37
2021/12/11 03:11:15;;;;;;;0.20;0.20;;;;;;;19.19;39.68;100424.41;5142748;27;20046;-37
2021/12/11 03:13:50;;;;;;;0.20;0.20;;;;;;;19.19;39.44;100421.63;5123074;27;20381;-37
2021/12/11 03:16:18;;;;;;;0.65;0.32;;;;;;;19.19;39.38;100429.91;5158066;27;20405;-37
2021/12/11 03:18:44;;;;;;;0.20;0.20;;;;;;;19.20;39.66;100437.06;5160194;27;20438;-37
2021/12/11 03:21:10;;;;;;;0.20;0.20;;;;;;;19.19;39.65;100443.72;5140105;27;20114;-37
2021/12/11 03:23:36;;;;;;;0.20;0.20;;;;;;;19.20;39.15;100445.34;5136386;27;20049;-37
2021/12/11 03:26:02;;;;;;;0.20;0.20;;;;;;;19.19;39.43;100447.31;5162443;27;20047;-37
2021/12/11 03:28:27;;;;;;;0.20;0.20;;;;;;;19.18;39.41;100450.38;5158804;27;20469;-38
2021/12/11 03:30:57;;;;;;;0.20;0.20;;;;;;;19.19;39.52;100457.53;5160634;27;20061;-38
2021/12/11 03:33:25;;;;;;;0.20;0.20;;;;;;;19.17;39.36;100449.53;5141476;27;20327;-38
2021/12/11 03:35:51;;;;;;;0.20;0.20;;;;;;;19.18;39.74;100456.69;5158260;27;20095;-38
2021/12/11 03:38:18;;;;;;;0.20;0.20;;;;;;;19.18;39.42;100462.22;5139532;27;20665;-38
2021/12/11 03:40:44;;;;;;;0.20;0.20;;;;;;;19.17;39.63;100457.81;5139327;27;20042;-38
2021/12/11 03:43:12;;;;;;;0.20;0.20;;;;;;;19.18;39.45;100466.94;5138978;27;20087;-38
2021/12/11 03:45:38;;;;;;;;;;;;;;;19.18;39.35;100469.69;5160912;27;20046;-38
2021/12/11 03:48:16;;;;;;;0.20;0.20;;;;;;;19.17;39.55;100471.63;5161491;27;19919;-39
2021/12/11 03:50:43;;;;;;;0.20;0.20;;;;;;;19.17;39.55;100479.06;5141417;27;20057;-38
2021/12/11 03:53:10;;;;;;;0.20;0.20;;;;;;;19.17;39.67;100477.16;5139049;27;20035;-38
2021/12/11 03:55:46;;;;;;;0.20;0.20;;;;;;;19.18;39.52;100486.25;5159355;27;20043;-38
2021/12/11 03:58:12;;;;;;;0.20;0.20;;;;;;;19.17;39.73;100484.56;5140010;27;20051;-38
2021/12/11 04:00:45;;;;;;;0.20;0.20;;;;;;;19.16;39.38;100494.81;5138053;27;20050;-38
2021/12/11 04:03:14;;;;;;;0.20;0.20;;;;;;;19.16;39.58;100503.06;5153087;27;20043;-39
2021/12/11 04:05:42;;;;;;;0.20;0.20;;;;;;;19.17;39.46;100506.66;5108316;27;20064;-38
2021/12/11 04:08:11;;;;;;;0.20;0.20;;;;;;;19.17;39.47;100513.03;5142726;27;20046;-39
2021/12/11 04:10:37;;;;;;;0.20;0.20;;;;;;;19.16;39.54;100516.88;5121606;27;20039;-38
2021/12/11 04:13:06;;;;;;;0.20;0.20;;;;;;;19.17;39.42;100518.56;5144685;27;20549;-40
2021/12/11 04:15:32;;;;;;;0.20;0.20;;;;;;;19.16;39.51;100519.63;5144562;27;20065;-38
2021/12/11 04:17:58;;;;;;;0.20;0.20;;;;;;;19.17;39.71;100525.97;5133551;27;20047;-38
2021/12/11 04:20:25;;;;;;;0.20;0.20;;;;;;;19.16;39.70;100525.16;5129428;27;20137;-38
2021/12/11 04:22:52;;;;;;;0.20;0.20;;;;;;;19.16;39.70;100538.97;5132995;27;20046;-38
2021/12/11 04:25:19;;;;;;;0.20;0.20;;;;;;;19.17;39.54;100542.53;5124974;27;20047;-38
2021/12/11 04:27:46;;;;;;;0.20;0.20;;;;;;;19.16;39.55;100550.00;5127292;27;20052;-37
2021/12/11 04:30:13;;;;;;;0.20;0.20;;;;;;;19.17;39.80;100556.34;5130615;27;20406;-39
2021/12/11 04:32:39;;;;;;;0.20;0.20;;;;;;;19.17;39.71;100559.09;5110785;27;20045;-38
2021/12/11 04:35:07;;;;;;;0.20;0.20;;;;;;;19.16;39.59;100563.81;5125425;27;20038;-38
2021/12/11 04:37:33;;;;;;;0.10;0.10;;;;;;;19.16;39.61;100566.56;5127950;27;20463;-38
2021/12/11 04:40:07;;;;;;;0.20;0.20;;;;;;;19.16;39.53;100563.00;5125257;27;20058;-38
2021/12/11 04:42:50;;;;;;;0.20;0.20;;;;;;;19.14;39.74;100574.31;5127350;27;20043;-37
2021/12/11 04:45:28;;;;;;;0.20;0.20;;;;;;;19.16;39.54;100574.03;5113675;28;20048;-38
2021/12/11 04:48:01;;;;;;;0.20;0.20;;;;;;;19.16;39.58;100572.09;5128846;27;20047;-37
2021/12/11 04:50:41;;;;;;;0.20;0.20;;;;;;;19.14;39.63;100579.84;5113377;27;20043;-37
2021/12/11 04:53:22;;;;;;;0.20;0.20;;;;;;;19.16;39.62;100574.03;5122342;27;20043;-38
2021/12/11 04:56:14;;;;;;;0.20;0.20;;;;;;;19.16;39.75;100590.59;5114397;27;20087;-36
2021/12/11 05:01:36;;;;;;;0.20;0.20;;;;;;;19.15;39.69;100600.81;5164267;27;20249;-36
2021/12/11 05:07:18;;;;;;;0.20;0.20;;;;;;;19.15;39.63;100597.22;5110462;27;20053;-37
2021/12/11 05:09:40;;;;;;;0.20;0.20;;;;;;;19.14;39.58;100606.63;5122898;27;20047;-37
2021/12/11 05:12:28;;;;;;;0.20;0.20;;;;;;;19.14;39.65;100604.69;5137643;27;21177;-37
2021/12/11 05:14:54;;;;;;;0.20;0.20;;;;;;;19.14;39.82;100610.22;5137340;27;20389;-37
2021/12/11 05:17:21;;;;;;;0.20;0.20;;;;;;;19.14;39.52;100609.41;5135725;27;20075;-39
2021/12/11 05:19:51;;;;;;;0.20;0.20;;;;;;;19.14;39.60;100615.75;5140515;27;20047;-37
2021/12/11 05:22:17;;;;;;;0.20;0.20;;;;;;;19.15;39.59;100617.38;5123221;27;20043;-37
2021/12/11 05:24:46;;;;;;;0.20;0.20;;;;;;;19.14;39.58;100620.44;5119038;27;20050;-37
2021/12/11 05:27:12;;;;;;;0.20;0.20;;;;;;;19.13;39.57;100632.56;5136603;27;20046;-37
2021/12/11 05:29:39;;;;;;;0.20;0.20;;;;;;;19.13;39.55;100629.81;5122144;27;20457;-37
2021/12/11 05:32:07;;;;;;;0.20;0.20;;;;;;;19.13;39.84;100641.69;5139944;27;20043;-36
2021/12/11 05:34:37;;;;;;;0.20;0.20;;;;;;;19.13;39.94;100641.69;5121914;27;20078;-37
2021/12/11 05:37:04;;;;;;;0.20;0.20;;;;;;;19.13;39.66;100638.94;5141392;27;20051;-37
2021/12/11 05:39:30;;;;;;;0.20;0.20;;;;;;;19.14;39.58;100643.34;5121380;27;20451;-37
2021/12/11 05:41:56;;;;;;;0.20;0.20;;;;;;;19.14;39.86;100642.53;5118982;27;20038;-40
2021/12/11 05:44:22;;;;;;;0.20;0.20;;;;;;;19.14;39.77;100651.63;5136255;27;20122;-37
2021/12/11 05:46:50;;;;;;;0.20;0.20;;;;;;;19.12;39.74;100653.81;5121225;27;20040;-37
2021/12/11 05:49:16;;;;;;;0.20;0.20;;;;;;;19.14;39.75;100661.84;5119298;27;20061;-38
2021/12/11 05:51:44;;;;;;;0.20;0.20;;;;;;;19.13;39.75;100674.81;5139182;27;20034;-37
2021/12/11 05:54:14;;;;;;;0.20;0.20;;;;;;;19.12;39.65;100675.91;5113265;27;20054;-37
2021/12/11 05:56:41;;;;;;;0.20;0.20;;;;;;;19.13;39.62;100676.72;5135342;27;20421;-38
2021/12/11 05:59:14;;;;;;;0.20;0.20;;;;;;;19.12;39.73;100675.91;5136442;27;20416;-38
2021/12/11 06:01:43;;;;;;;0.20;0.20;;;;;;;19.14;39.86;100678.41;5137575;27;20035;-37
2021/12/11 06:04:13;;;;;;;0.20;0.20;;;;;;;19.13;40.00;100688.63;5134490;27;20080;-38
2021/12/11 06:06:41;;;;;;;0.20;0.20;;;;;;;19.12;39.87;100688.88;5121599;27;21393;-38
2021/12/11 06:09:10;;;;;;;0.20;0.20;;;;;;;19.11;39.74;100695.53;5121330;27;20138;-39
2021/12/11 06:11:36;;;;;;;0.20;0.20;;;;;;;19.13;39.67;100693.28;5132151;27;20146;-37
2021/12/11 06:14:03;;;;;;;0.20;0.20;;;;;;;19.13;39.64;100701.56;5121211;28;20084;-38
2021/12/11 06:16:29;;;;;;;0.20;0.20;;;;;;;19.13;39.71;100704.34;5109840;28;20059;-38
2021/12/11 06:18:55;;;;;;;0.20;0.20;;;;;;;19.12;39.65;100702.69;5123240;28;20050;-38
2021/12/11 06:21:21;;;;;;;0.20;0.20;;;;;;;19.13;39.91;100712.63;5122791;28;20055;-39
2021/12/11 06:23:46;;;;;;;0.20;0.20;;;;;;;19.11;39.92;100712.09;5117782;28;20546;-39
2021/12/11 06:26:12;;;;;;;0.20;0.20;;;;;;;19.12;39.79;100722.84;5125171;28;20051;-38
2021/12/11 06:28:39;;;;;;;0.20;0.20;;;;;;;19.12;39.66;100730.28;5102253;28;20078;-37
2021/12/11 06:31:05;;;;;;;0.20;0.20;;;;;;;19.13;39.66;100737.47;5119768;28;20048;-37
2021/12/11 06:33:33;;;;;;;0.20;0.20;;;;;;;19.11;39.90;100737.75;5099430;28;20088;-38
2021/12/11 06:36:05;;;;;;;0.20;0.20;;;;;;;19.11;39.93;100737.75;5103713;28;20322;-37
2021/12/11 06:38:34;;;;;;;0.20;0.20;;;;;;;19.11;39.93;100740.50;5102886;28;20053;-37
2021/12/11 06:41:00;;;;;;;0.20;0.20;;;;;;;19.11;39.88;100740.50;5117732;28;20047;-39
2021/12/11 06:43:25;;;;;;;0.20;0.20;;;;;;;19.11;39.87;100751.56;5089498;28;20047;-37
2021/12/11 06:45:51;;;;;;;0.20;0.20;;;;;;;19.11;39.97;100757.06;5104297;28;20039;-37
2021/12/11 06:48:18;;;;;;;0.20;0.20;;;;;;;19.12;39.74;100764.25;5119468;28;20060;-37
2021/12/11 06:50:45;;;;;;;0.20;0.20;;;;;;;19.12;39.66;100758.72;5122136;28;20043;-37
2021/12/11 06:53:15;;;;;;;0.20;0.20;;;;;;;19.12;39.89;100758.72;5102151;28;20071;-37
2021/12/11 06:55:41;;;;;;;0.20;0.20;;;;;;;19.12;39.91;100771.69;5105003;28;20099;-37
2021/12/11 06:58:06;;;;;;;0.20;0.20;;;;;;;19.12;39.82;100779.97;5123794;28;20493;-36
2021/12/11 07:00:32;;;;;;;0.20;0.20;;;;;;;19.12;40.00;100791.03;5120370;28;20129;-37
2021/12/11 07:02:58;;;;;;;0.20;0.20;;;;;;;19.10;39.98;100784.97;5118679;28;20043;-38
2021/12/11 07:05:24;;;;;;;0.20;0.20;;;;;;;19.12;39.78;100788.25;5121465;28;20493;-37
2021/12/11 07:07:50;;;;;;;0.20;0.20;;;;;;;19.12;39.83;100791.03;5119214;28;20051;-38
2021/12/11 07:10:19;;;;;;;0.20;0.20;;;;;;;19.12;39.96;100799.31;5119470;28;20051;-37
2021/12/11 07:12:46;;;;;;;0.20;0.20;;;;;;;19.11;39.75;100804.00;5101745;28;20099;-37
2021/12/11 07:15:12;;;;;;;0.20;0.20;;;;;;;19.11;39.87;100815.03;5105298;28;20047;-36
2021/12/11 07:17:38;;;;;;;0.20;0.20;;;;;;;19.11;39.76;100817.81;5121566;28;20043;-37
2021/12/11 07:20:06;;;;;;;0.20;0.20;;;;;;;19.12;39.79;100821.38;5118978;28;20392;-39
2021/12/11 07:22:32;;;;;;;0.20;0.20;;;;;;;19.12;40.04;100821.38;5118102;27;20044;-37
2021/12/11 07:25:06;;;;;;;0.25;0.25;;;;;;;19.11;39.98;100822.50;5119559;28;20054;-37
2021/12/11 07:27:31;;;;;;;0.20;0.20;;;;;;;19.10;39.98;100821.69;5120471;28;20629;-37
2021/12/11 07:29:57;;;;;;;0.30;0.30;;;;;;;19.12;40.01;100827.72;5118548;28;20079;-36
2021/12/11 07:32:23;;;;;;;0.30;0.30;;;;;;;19.11;39.75;100830.78;5115327;28;20508;-37
2021/12/11 07:34:48;;;;;;;0.20;0.20;;;;;;;19.11;40.05;100836.31;5118514;28;20088;-38
2021/12/11 07:37:16;;;;;;;0.20;0.20;;;;;;;19.12;39.92;100843.47;5121407;28;20046;-37
2021/12/11 07:39:41;;;;;;;0.20;0.20;;;;;;;19.11;39.92;100841.81;5117119;28;20047;-38
2021/12/11 07:42:07;;;;;;;0.20;0.20;;;;;;;19.11;40.06;100850.09;5118713;28;20046;-37
2021/12/11 07:44:34;;;;;;;0.20;0.20;;;;;;;19.09;40.00;100858.69;5102222;28;20043;-38
2021/12/11 07:47:00;;;;;;;0.20;0.20;;;;;;;19.10;40.16;100863.09;5103174;28;20055;-37
2021/12/11 07:49:27;;;;;;;0.20;0.20;;;;;;;19.09;39.85;100864.19;5117214;28;20478;-37
2021/12/11 07:51:53;;;;;;;0.20;0.20;;;;;;;19.11;39.98;100869.44;5113024;28;20035;-37
2021/12/11 07:54:20;;;;;;;0.20;0.20;;;;;;;19.10;39.82;100868.59;5099545;28;20386;-36
2021/12/11 07:56:45;;;;;;;0.20;0.20;;;;;;;19.11;39.88;100883.22;5099527;28;20051;-37
2021/12/11 07:59:12;;;;;;;0.20;0.20;;;;;;;19.09;39.98;100875.25;5116460;28;20043;-36
2021/12/11 08:01:41;;;;;;;0.20;0.20;;;;;;;19.11;39.92;100886.00;5123688;28;20039;-37
2021/12/11 08:04:07;;;;;;;0.20;0.20;;;;;;;19.10;39.82;100887.94;5085075;28;20055;-38
2021/12/11 08:06:34;;;;;;;0.20;0.20;;;;;;;19.11;40.01;100894.28;5104051;28;20047;-37
2021/12/11 08:09:00;;;;;;;0.20;0.20;;;;;;;19.10;39.91;100889.88;5100612;28;20067;-36
2021/12/11 08:11:28;;;;;;;0.20;0.20;;;;;;;19.10;39.91;100884.34;5100967;28;20039;-37
2021/12/11 08:13:56;;;;;;;0.20;0.20;;;;;;;19.09;40.08;100900.09;5120529;28;20046;-36
2021/12/11 08:16:26;;;;;;;0.20;0.20;;;;;;;19.09;39.83;100907.53;5104285;28;20043;-37
2021/12/11 08:18:53;;;;;;;0.20;0.20;;;;;;;19.10;39.90;100915.53;5117070;28;20039;-38
2021/12/11 08:21:22;;;;;;;0.20;0.20;;;;;;;19.09;39.86;100913.88;5119655;28;20047;-38
2021/12/11 08:23:53;;;;;;;0.20;0.20;;;;;;;19.10;39.98;100915.53;5112200;28;21024;-37
2021/12/11 08:26:21;;;;;;;0.20;0.20;;;;;;;19.10;40.13;100920.22;5100983;28;20401;-37
2021/12/11 08:28:49;;;;;;;0.20;0.20;;;;;;;19.10;39.83;100915.53;5101322;28;20477;-37
2021/12/11 08:31:14;;;;;;;0.20;0.20;;;;;;;19.09;40.04;100922.16;5118938;28;20062;-37
2021/12/11 08:33:41;;;;;;;0.30;0.30;;;;;;;19.10;39.96;100934.03;5115777;28;20055;-36
2021/12/11 08:36:08;;;;;;;0.30;0.30;;;;;;;19.10;39.89;100934.03;5118211;28;20525;-37
2021/12/11 08:38:34;;;;;;;0.20;0.20;;;;;;;19.10;39.77;100934.03;5098598;28;20050;-38
2021/12/11 08:41:01;;;;;;;0.20;0.20;;;;;;;19.09;40.13;100935.16;5100452;28;20382;-38
2021/12/11 08:43:27;;;;;;;0.20;0.20;;;;;;;19.09;39.99;100946.19;5119065;28;20465;-39
2021/12/11 08:46:08;;;;;;;0.20;0.20;;;;;;;19.09;40.18;100951.69;5117054;28;20492;-37
2021/12/11 08:48:36;;;;;;;0.20;0.20;;;;;;;19.09;40.04;100948.94;5103523;28;20095;-38
2021/12/11 08:51:09;;;;;;;0.20;0.20;;;;;;;19.09;39.99;100966.34;5119365;28;20047;-37
2021/12/11 08:53:36;;;;;;;0.20;0.20;;;;;;;19.10;39.86;100958.88;5094215;28;20051;-37
2021/12/11 08:56:04;;;;;;;0.20;0.20;;;;;;;19.09;39.96;100962.75;5120402;28;20043;-37
2021/12/11 08:58:30;;;;;;;0.20;0.20;;;;;;;19.08;40.17;100963.81;5100975;28;20046;-37
2021/12/11 09:01:10;;;;;;;0.20;0.20;;;;;;;19.08;40.12;100961.88;5119832;28;20050;-37
2021/12/11 09:03:45;;;;;;;0.20;0.20;;;;;;;19.09;39.91;100960.81;5116540;28;20047;-37
2021/12/11 09:06:22;;;;;;;0.20;0.20;;;;;;;19.09;40.02;100962.75;5096168;28;20093;-37
2021/12/11 09:08:52;;;;;;;0.20;0.20;;;;;;;19.08;40.05;100966.59;5100180;28;20054;-37
2021/12/11 09:11:28;;;;;;;0.20;0.20;;;;;;;19.08;40.17;100970.16;5101281;28;20051;-37
2021/12/11 09:13:59;;;;;;;0.20;0.20;;;;;;;19.08;39.92;100972.09;5101974;28;20207;-37
2021/12/11 09:16:31;;;;;;;0.20;0.20;;;;;;;19.08;40.13;100983.16;5084486;28;20039;-37
2021/12/11 09:19:07;;;;;;;0.20;0.20;;;;;;;19.08;39.94;100974.88;5117197;28;20054;-36
2021/12/11 09:21:40;;;;;;;0.20;0.20;;;;;;;19.08;40.13;100980.38;5120302;28;20039;-37
2021/12/11 09:24:26;;;;;;;0.20;0.20;;;;;;;19.08;40.12;100978.44;5114916;28;20039;-37
2021/12/11 09:27:05;;;;;;;0.20;0.20;;;;;;;19.09;40.02;100987.59;5116307;28;20047;-38
2021/12/11 09:29:34;;;;;;;0.25;0.25;;;;;;;19.08;40.08;100996.94;5102171;28;20058;-37
2021/12/11 09:32:39;;;;;;;0.20;0.20;;;;;;;19.07;40.06;100984.25;5116959;28;20054;-37
2021/12/11 09:35:12;;;;;;;0.20;0.20;;;;;;;19.08;40.09;100996.94;5088702;28;20458;-39
2021/12/11 09:37:39;;;;;;;0.20;0.20;;;;;;;19.08;40.02;101003.28;5114379;28;20035;-37
2021/12/11 09:40:34;;;;;;;0.20;0.20;;;;;;;19.08;40.21;100996.94;5078787;28;20454;-38
2021/12/11 09:45:42;;;;;;;0.30;0.30;;;;;;;19.07;40.12;101003.59;5157749;27;20213;-37
2021/12/11 09:48:14;;;;;;;0.20;0.20;;;;;;;19.07;40.09;101006.34;5137739;27;20035;-37
2021/12/11 09:50:51;;;;;;;0.20;0.20;;;;;;;19.05;40.10;101004.69;5154028;27;20043;-37
2021/12/11 09:53:19;;;;;;;0.20;0.20;;;;;;;19.06;40.21;101013.81;5135089;27;20101;-43
2021/12/11 09:55:45;;;;;;;;;;;;;;;19.07;39.63;101011.88;5135232;27;20049;-37
2021/12/11 09:58:15;;;;;;;0.22;0.22;;;;;;;19.06;40.09;101016.56;5155688;27;19929;-37
2021/12/11 10:00:48;;;;;;;0.20;0.20;;;;;;;19.05;40.13;101018.50;5122629;27;20049;-38
2021/12/11 10:03:17;;;;;;;0.20;0.20;;;;;;;19.06;40.42;101019.31;5154311;27;20129;-38
2021/12/11 10:05:55;;;;;;;0.20;0.20;;;;;;;19.07;40.13;101020.16;5134516;27;21260;-38
2021/12/11 10:08:32;;;;;;;0.20;0.20;;;;;;;19.06;40.03;101019.31;5139308;27;20057;-38
2021/12/11 10:11:20;;;;;;;0.20;0.20;;;;;;;19.04;40.00;101024.28;5136839;27;20047;-38
2021/12/11 10:13:53;;;;;;;0.20;0.20;;;;;;;19.05;39.96;101024.03;5137070;27;20054;-36
2021/12/11 10:16:22;;;;;;;0.20;0.20;;;;;;;19.06;40.04;101027.59;5139942;27;20050;-38
2021/12/11 10:18:50;;;;;;;0.20;0.20;;;;;;;19.05;39.95;101021.25;5137549;27;20140;-38
2021/12/11 10:21:20;;;;;;;0.20;0.20;;;;;;;19.06;39.97;101033.13;5142699;27;20061;-38
2021/12/11 10:23:48;;;;;;;0.20;0.20;;;;;;;19.05;40.20;101032.31;5140068;27;20490;-39
2021/12/11 10:26:18;;;;;;;0.20;0.20;;;;;;;19.06;40.25;101035.88;5142720;27;20049;-41
2021/12/11 10:28:48;;;;;;;0.20;0.20;;;;;;;19.05;39.97;101029.53;5138298;27;20288;-38
2021/12/11 10:31:18;;;;;;;0.20;0.20;;;;;;;19.05;40.22;101037.00;5121843;27;20047;-39
2021/12/11 10:33:44;;;;;;;0.20;0.20;;;;;;;19.05;40.20;101045.28;5137520;27;20043;-37
2021/12/11 10:36:20;;;;;;;0.20;0.20;;;;;;;19.06;40.29;101049.69;5140699;27;20054;-37
2021/12/11 10:38:47;;;;;;;0.20;0.20;;;;;;;19.06;40.20;101046.94;5136553;27;20057;-38
2021/12/11 10:41:22;;;;;;;0.20;0.20;;;;;;;19.04;39.95;101046.34;5134232;27;20072;-37
2021/12/11 10:43:59;;;;;;;0.20;0.20;;;;;;;19.04;40.28;101049.13;5141673;27;20035;-38
2021/12/11 10:46:28;;;;;;;0.20;0.20;;;;;;;19.05;40.26;101056.31;5134687;27;20143;-38
2021/12/11 10:48:54;;;;;;;0.20;0.20;;;;;;;19.05;40.03;101048.88;5143102;27;20106;-37
2021/12/11 10:51:27;;;;;;;0.20;0.20;;;;;;;19.04;40.05;101047.22;5120608;27;20051;-38
2021/12/11 10:53:53;;;;;;;0.20;0.20;;;;;;;19.05;40.20;101056.31;5135747;27;20055;-38
2021/12/11 10:56:21;;;;;;;0.20;0.20;;;;;;;19.04;39.93;101047.22;5125622;27;20084;-38
2021/12/11 10:58:53;;;;;;;0.20;0.20;;;;;;;19.05;40.29;101053.56;5129457;27;20332;-38
2021/12/11 11:01:27;;;;;;;0.20;0.20;;;;;;;19.04;40.26;101041.69;5123817;27;20046;-37
2021/12/11 11:03:59;;;;;;;0.20;0.20;;;;;;;19.04;40.09;101046.34;5120078;27;20230;-38
2021/12/11 11:06:24;;;;;;;0.20;0.20;;;;;;;19.04;40.15;101051.88;5130383;27;20489;-38
2021/12/11 11:08:50;;;;;;;0.20;0.20;;;;;;;19.04;40.13;101049.97;5122822;27;20050;-38
2021/12/11 11:11:20;;;;;;;0.20;0.20;;;;;;;19.04;40.26;101046.34;5106355;28;20488;-38
2021/12/11 11:13:47;;;;;;;0.20;0.20;;;;;;;19.04;40.14;101054.63;5126256;27;20043;-39
2021/12/11 11:16:13;;;;;;;0.20;0.20;;;;;;;19.02;40.15;101054.94;5124610;27;20043;-38
2021/12/11 11:18:39;;;;;;;0.20;0.20;;;;;;;19.03;39.95;101053.81;5126949;27;20045;-38
2021/12/11 11:21:10;;;;;;;0.20;0.20;;;;;;;19.03;40.06;101058.50;5126135;27;20043;-36
2021/12/11 11:23:37;;;;;;;0.20;0.20;;;;;;;19.03;40.31;101064.03;5118169;27;20047;-38
2021/12/11 11:26:06;;;;;;;0.20;0.20;;;;;;;19.03;40.23;101066.78;5130719;27;20076;-37
2021/12/11 11:28:34;;;;;;;0.20;0.20;;;;;;;19.03;40.05;101077.84;5123772;27;20050;-38
2021/12/11 11:31:05;;;;;;;0.20;0.20;;;;;;;19.03;40.28;101081.41;5129980;27;20047;-38
2021/12/11 11:33:31;;;;;;;0.20;0.20;;;;;;;19.02;40.17;101082.53;5118392;27;20074;-38
2021/12/11 11:35:58;;;;;;;0.30;0.30;;;;;;;19.03;40.07;101084.19;5121216;27;20035;-37
2021/12/11 11:38:28;;;;;;;0.20;0.20;;;;;;;19.01;39.85;101088.34;5122999;27;20457;-39
2021/12/11 11:40:58;;;;;;;0.30;0.30;;;;;;;19.02;40.02;101092.75;5128211;27;20511;-37
2021/12/11 11:43:24;;;;;;;0.20;0.20;;;;;;;19.03;40.24;101097.16;5126129;27;20039;-37
2021/12/11 11:45:52;;;;;;;0.20;0.20;;;;;;;19.03;40.15;101097.16;5123570;27;20494;-37
2021/12/11 11:48:22;;;;;;;0.20;0.20;;;;;;;19.02;40.24;101101.84;5126725;27;20043;-37
2021/12/11 11:51:10;;;;;;;0.28;0.28;;;;;;;19.02;40.15;101101.03;5125384;27;20067;-38